createdAt,value
2024-05-09T00:00:31.670Z,99206.24
2024-05-09T00:01:40.737Z,99205.46
2024-05-09T00:02:42.885Z,99205.42
2024-05-09T00:03:45.821Z,99205.66
2024-05-09T00:04:48.038Z,99205.49
2024-05-09T00:05:50.124Z,99204.65
2024-05-09T00:06:52.189Z,99203.67
2024-05-09T00:07:54.281Z,99202.90
2024-05-09T00:08:56.337Z,99202.06
2024-05-09T00:09:58.406Z,99202.20
2024-05-09T00:11:00.618Z,99201.81
2024-05-09T00:12:03.481Z,99201.03
2024-05-09T00:13:06.674Z,99201.11
2024-05-09T00:14:09.015Z,99201.79
2024-05-09T00:15:11.075Z,99202.48
2024-05-09T00:16:13.140Z,99202.92
2024-05-09T00:17:15.406Z,99202.71
2024-05-09T00:18:17.816Z,99201.23
2024-05-09T00:19:20.574Z,99199.83
2024-05-09T00:20:28.543Z,99199.11
2024-05-09T00:21:42.332Z,99198.52
2024-05-09T00:22:44.514Z,99198.52
2024-05-09T00:23:46.589Z,99198.15
2024-05-09T00:24:48.658Z,99197.73
2024-05-09T00:25:50.766Z,99196.45
2024-05-09T00:26:52.841Z,99196.79
2024-05-09T00:27:54.913Z,99196.78
2024-05-09T00:28:57.023Z,99195.97
2024-05-09T00:29:59.115Z,99194.96
2024-05-09T00:31:02.211Z,99195.00
2024-05-09T00:32:04.932Z,99194.25
2024-05-09T00:33:08.678Z,99192.51
2024-05-09T00:34:12.358Z,99194.01
2024-05-09T00:35:14.511Z,99194.01
2024-05-09T00:36:16.591Z,99193.55
2024-05-09T00:37:19.266Z,99192.54
2024-05-09T00:38:21.497Z,99194.07
2024-05-09T00:39:23.580Z,99194.04
2024-05-09T00:40:35.700Z,99193.19
2024-05-09T00:41:41.805Z,99193.54
2024-05-09T00:42:45.902Z,99194.83
2024-05-09T00:43:48.036Z,99194.80
2024-05-09T00:44:50.099Z,99195.03
2024-05-09T00:45:53.813Z,99194.12
2024-05-09T00:46:56.506Z,99194.52
2024-05-09T00:48:01.458Z,99193.79
2024-05-09T00:49:04.391Z,99194.15
2024-05-09T00:50:10.164Z,99194.38
2024-05-09T00:51:17.680Z,99194.31
2024-05-09T00:52:20.630Z,99194.49
2024-05-09T00:53:23.355Z,99193.48
2024-05-09T00:54:25.484Z,99192.67
2024-05-09T00:55:27.766Z,99193.40
2024-05-09T00:56:29.876Z,99193.65
2024-05-09T00:57:31.970Z,99192.98
2024-05-09T00:58:34.018Z,99194.49
2024-05-09T00:59:36.233Z,99194.41
2024-05-09T01:00:40.945Z,99193.55
2024-05-09T01:01:44.865Z,99193.86
2024-05-09T01:02:47.179Z,99193.95
2024-05-09T01:03:51.285Z,99194.73
2024-05-09T01:04:54.313Z,99194.97
2024-05-09T01:05:56.592Z,99194.99
2024-05-09T01:06:58.707Z,99195.74
2024-05-09T01:08:01.493Z,99195.99
2024-05-09T01:09:03.580Z,99197.05
2024-05-09T01:10:11.690Z,99197.78
2024-05-09T01:11:19.862Z,99197.59
2024-05-09T01:12:23.583Z,99197.42
2024-05-09T01:13:25.702Z,99196.95
2024-05-09T01:14:27.798Z,99196.05
2024-05-09T01:15:29.976Z,99195.67
2024-05-09T01:16:32.290Z,99194.54
2024-05-09T01:17:34.944Z,99194.16
2024-05-09T01:18:37.185Z,99194.42
2024-05-09T01:19:39.481Z,99195.05
2024-05-09T01:20:44.151Z,99195.88
2024-05-09T01:21:47.390Z,99197.38
2024-05-09T01:22:51.699Z,99197.44
2024-05-09T01:23:53.755Z,99199.09
2024-05-09T01:24:55.821Z,99200.44
2024-05-09T01:25:57.946Z,99201.22
2024-05-09T01:27:00.019Z,99201.09
2024-05-09T01:28:02.088Z,99200.14
2024-05-09T01:29:04.188Z,99199.30
2024-05-09T01:30:09.270Z,99199.44
2024-05-09T01:31:14.722Z,99198.59
2024-05-09T01:32:16.871Z,99196.62
2024-05-09T01:33:19.069Z,99195.26
2024-05-09T01:34:21.351Z,99195.45
2024-05-09T01:35:23.576Z,99193.43
2024-05-09T01:36:25.741Z,99192.86
2024-05-09T01:37:27.804Z,99192.02
2024-05-09T01:38:30.303Z,99191.29
2024-05-09T01:39:32.445Z,99190.13
2024-05-09T01:40:38.452Z,99189.60
2024-05-09T01:41:42.128Z,99188.61
2024-05-09T01:42:44.192Z,99188.71
2024-05-09T01:43:46.336Z,99188.75
2024-05-09T01:44:48.429Z,99188.35
2024-05-09T01:45:50.460Z,99189.15
2024-05-09T01:46:52.571Z,99188.26
2024-05-09T01:47:54.862Z,99189.19
2024-05-09T01:48:57.087Z,99188.48
2024-05-09T01:49:59.216Z,99189.51
2024-05-09T01:51:01.468Z,99189.98
2024-05-09T01:52:03.702Z,99190.77
2024-05-09T01:53:05.928Z,99190.94
2024-05-09T01:54:08.066Z,99190.45
2024-05-09T01:55:10.117Z,99190.46
2024-05-09T01:56:12.282Z,99190.56
2024-05-09T01:57:15.868Z,99189.38
2024-05-09T01:58:18.097Z,99190.46
2024-05-09T01:59:21.154Z,99190.15
2024-05-09T02:00:34.492Z,99190.68
2024-05-09T02:01:56.124Z,99190.04
2024-05-09T02:02:59.901Z,99190.81
2024-05-09T02:04:02.620Z,99190.09
2024-05-09T02:05:05.320Z,99190.50
2024-05-09T02:06:07.587Z,99191.30
2024-05-09T02:07:09.665Z,99190.66
2024-05-09T02:08:16.621Z,99192.13
2024-05-09T02:09:18.874Z,99191.10
2024-05-09T02:10:26.358Z,99191.74
2024-05-09T02:11:42.214Z,99191.79
2024-05-09T02:12:44.337Z,99192.66
2024-05-09T02:13:46.446Z,99189.40
2024-05-09T02:14:48.511Z,99189.13
2024-05-09T02:15:51.508Z,99188.75
2024-05-09T02:16:53.601Z,99188.74
2024-05-09T02:17:55.853Z,99189.05
2024-05-09T02:18:58.140Z,99188.48
2024-05-09T02:20:00.353Z,99187.52
2024-05-09T02:21:02.555Z,99188.54
2024-05-09T02:22:04.714Z,99188.06
2024-05-09T02:23:07.691Z,99189.93
2024-05-09T02:24:09.806Z,99189.88
2024-05-09T02:25:11.849Z,99189.82
2024-05-09T02:26:13.934Z,99190.64
2024-05-09T02:27:16.007Z,99191.02
2024-05-09T02:28:19.862Z,99191.39
2024-05-09T02:29:22.039Z,99191.23
2024-05-09T02:30:31.131Z,99192.01
2024-05-09T02:31:40.996Z,99191.51
2024-05-09T02:32:43.209Z,99190.98
2024-05-09T02:33:45.943Z,99192.39
2024-05-09T02:34:48.146Z,99191.63
2024-05-09T02:35:50.325Z,99191.12
2024-05-09T02:36:54.953Z,99191.10
2024-05-09T02:37:57.059Z,99191.54
2024-05-09T02:38:59.089Z,99191.61
2024-05-09T02:40:01.146Z,99192.12
2024-05-09T02:41:03.365Z,99192.45
2024-05-09T02:42:05.634Z,99192.17
2024-05-09T02:43:11.797Z,99192.25
2024-05-09T02:44:14.686Z,99192.70
2024-05-09T02:45:16.771Z,99191.74
2024-05-09T02:46:18.825Z,99192.05
2024-05-09T02:47:21.079Z,99190.40
2024-05-09T02:48:23.567Z,99189.80
2024-05-09T02:49:25.875Z,99188.37
2024-05-09T02:50:34.586Z,99187.89
2024-05-09T02:51:40.857Z,99188.12
2024-05-09T02:52:42.934Z,99187.78
2024-05-09T02:53:45.083Z,99186.20
2024-05-09T02:54:47.140Z,99186.54
2024-05-09T02:55:49.278Z,99184.76
2024-05-09T02:56:51.341Z,99183.48
2024-05-09T02:57:53.419Z,99182.56
2024-05-09T02:58:55.737Z,99182.46
2024-05-09T02:59:57.802Z,99181.76
2024-05-09T03:01:00.926Z,99181.05
2024-05-09T03:02:03.154Z,99181.47
2024-05-09T03:03:06.948Z,99181.68
2024-05-09T03:04:09.463Z,99182.69
2024-05-09T03:05:11.799Z,99184.08
2024-05-09T03:06:13.904Z,99183.98
2024-05-09T03:07:17.239Z,99184.41
2024-05-09T03:08:20.462Z,99186.59
2024-05-09T03:09:23.015Z,99187.80
2024-05-09T03:10:28.730Z,99187.42
2024-05-09T03:11:34.840Z,99188.84
2024-05-09T03:12:39.224Z,99188.05
2024-05-09T03:13:41.445Z,99189.52
2024-05-09T03:14:43.484Z,99189.13
2024-05-09T03:15:45.682Z,99189.09
2024-05-09T03:16:47.769Z,99187.80
2024-05-09T03:17:50.063Z,99188.59
2024-05-09T03:18:53.578Z,99190.10
2024-05-09T03:19:55.691Z,99189.52
2024-05-09T03:20:57.998Z,99190.53
2024-05-09T03:22:00.055Z,99191.59
2024-05-09T03:23:03.704Z,99191.70
2024-05-09T03:24:06.450Z,99192.52
2024-05-09T03:25:08.531Z,99193.23
2024-05-09T03:26:12.136Z,99193.14
2024-05-09T03:27:14.256Z,99192.13
2024-05-09T03:28:16.354Z,99192.33
2024-05-09T03:29:18.470Z,99190.74
2024-05-09T03:30:30.758Z,99191.34
2024-05-09T03:31:42.599Z,99189.62
2024-05-09T03:32:44.816Z,99188.65
2024-05-09T03:33:47.077Z,99188.06
2024-05-09T03:34:49.279Z,99188.23
2024-05-09T03:35:51.305Z,99189.52
2024-05-09T03:36:53.379Z,99187.67
2024-05-09T03:37:55.475Z,99187.83
2024-05-09T03:38:57.505Z,99188.25
2024-05-09T03:40:00.774Z,99189.77
2024-05-09T03:41:02.869Z,99191.38
2024-05-09T03:42:04.912Z,99193.92
2024-05-09T03:43:06.981Z,99196.04
2024-05-09T03:44:09.313Z,99196.56
2024-05-09T03:45:11.351Z,99196.05
2024-05-09T03:46:13.422Z,99196.23
2024-05-09T03:47:15.614Z,99195.86
2024-05-09T03:48:18.114Z,99196.07
2024-05-09T03:49:21.389Z,99195.87
2024-05-09T03:50:30.106Z,99194.91
2024-05-09T03:51:36.064Z,99193.76
2024-05-09T03:52:38.135Z,99191.89
2024-05-09T03:53:40.407Z,99192.91
2024-05-09T03:54:48.052Z,99190.95
2024-05-09T03:55:50.143Z,99192.60
2024-05-09T03:56:53.189Z,99191.84
2024-05-09T03:57:55.650Z,99192.38
2024-05-09T03:58:57.956Z,99192.94
2024-05-09T04:00:00.035Z,99193.02
2024-05-09T04:01:02.782Z,99191.05
2024-05-09T04:02:05.386Z,99191.13
2024-05-09T04:03:09.976Z,99194.13
2024-05-09T04:04:14.131Z,99195.98
2024-05-09T04:05:16.319Z,99196.59
2024-05-09T04:06:25.337Z,99198.09
2024-05-09T04:07:27.361Z,99198.67
2024-05-09T04:08:29.524Z,99200.20
2024-05-09T04:09:31.624Z,99201.05
2024-05-09T04:10:35.026Z,99201.39
2024-05-09T04:11:37.774Z,99202.28
2024-05-09T04:12:39.973Z,99204.35
2024-05-09T04:13:42.232Z,99204.34
2024-05-09T04:14:44.350Z,99205.42
2024-05-09T04:15:46.420Z,99206.91
2024-05-09T04:16:48.528Z,99208.57
2024-05-09T04:17:50.792Z,99209.83
2024-05-09T04:18:53.330Z,99208.52
2024-05-09T04:19:55.558Z,99209.32
2024-05-09T04:20:58.277Z,99211.55
2024-05-09T04:22:00.378Z,99213.42
2024-05-09T04:23:02.499Z,99212.17
2024-05-09T04:24:04.736Z,99214.06
2024-05-09T04:25:06.807Z,99214.08
2024-05-09T04:26:08.948Z,99213.09
2024-05-09T04:27:11.022Z,99211.84
2024-05-09T04:28:13.270Z,99215.17
2024-05-09T04:29:15.378Z,99214.75
2024-05-09T04:30:25.729Z,99214.38
2024-05-09T04:31:35.965Z,99216.38
2024-05-09T04:32:38.179Z,99216.15
2024-05-09T04:33:40.403Z,99218.32
2024-05-09T04:34:42.538Z,99220.11
2024-05-09T04:35:45.222Z,99220.43
2024-05-09T04:36:47.528Z,99224.33
2024-05-09T04:37:49.675Z,99225.23
2024-05-09T04:38:51.758Z,99225.52
2024-05-09T04:39:53.965Z,99225.48
2024-05-09T04:40:56.173Z,99226.55
2024-05-09T04:41:58.262Z,99227.39
2024-05-09T04:43:00.527Z,99229.04
2024-05-09T04:44:02.630Z,99231.48
2024-05-09T04:45:04.862Z,99232.16
2024-05-09T04:46:06.941Z,99234.66
2024-05-09T04:47:09.014Z,99235.84
2024-05-09T04:48:11.385Z,99235.41
2024-05-09T04:49:13.935Z,99237.30
2024-05-09T04:50:24.657Z,99237.86
2024-05-09T04:51:31.623Z,99239.41
2024-05-09T04:52:33.674Z,99239.46
2024-05-09T04:53:35.995Z,99236.87
2024-05-09T04:54:38.098Z,99237.16
2024-05-09T04:55:40.729Z,99237.74
2024-05-09T04:56:42.939Z,99240.09
2024-05-09T04:57:44.998Z,99238.64
2024-05-09T04:58:47.088Z,99239.35
2024-05-09T04:59:49.132Z,99241.56
2024-05-09T05:00:51.268Z,99242.86
2024-05-09T05:01:53.525Z,99241.45
2024-05-09T05:02:55.855Z,99244.87
2024-05-09T05:03:58.458Z,99246.02
2024-05-09T05:05:00.981Z,99247.93
2024-05-09T05:06:03.195Z,99247.81
2024-05-09T05:07:05.469Z,99247.79
2024-05-09T05:08:11.264Z,99247.87
2024-05-09T05:09:13.386Z,99246.99
2024-05-09T05:10:21.543Z,99247.96
2024-05-09T05:11:30.964Z,99250.26
2024-05-09T05:12:51.488Z,99250.16
2024-05-09T05:13:53.597Z,99249.99
2024-05-09T05:14:56.556Z,99251.21
2024-05-09T05:15:59.886Z,99252.26
2024-05-09T05:17:02.026Z,99253.08
2024-05-09T05:18:05.516Z,99254.30
2024-05-09T05:19:10.837Z,99255.54
2024-05-09T05:20:17.933Z,99254.97
2024-05-09T05:21:26.363Z,99257.68
2024-05-09T05:22:28.486Z,99257.35
2024-05-09T05:23:30.620Z,99258.38
2024-05-09T05:24:32.746Z,99258.30
2024-05-09T05:25:34.777Z,99259.40
2024-05-09T05:26:37.967Z,99259.84
2024-05-09T05:27:40.026Z,99261.16
2024-05-09T05:28:42.086Z,99261.55
2024-05-09T05:29:44.204Z,99261.84
2024-05-09T05:30:46.443Z,99263.48
2024-05-09T05:31:48.576Z,99263.83
2024-05-09T05:32:50.974Z,99265.65
2024-05-09T05:33:53.248Z,99265.95
2024-05-09T05:34:55.404Z,99268.02
2024-05-09T05:35:57.504Z,99266.24
2024-05-09T05:36:59.544Z,99265.85
2024-05-09T05:38:05.794Z,99265.38
2024-05-09T05:39:07.891Z,99265.48
2024-05-09T05:40:14.612Z,99265.30
2024-05-09T05:41:19.556Z,99264.61
2024-05-09T05:42:21.632Z,99263.54
2024-05-09T05:43:23.745Z,99265.89
2024-05-09T05:44:25.870Z,99265.13
2024-05-09T05:45:27.933Z,99267.23
2024-05-09T05:46:29.967Z,99267.10
2024-05-09T05:47:32.111Z,99268.93
2024-05-09T05:48:34.476Z,99270.30
2024-05-09T05:49:36.648Z,99269.59
2024-05-09T05:50:39.057Z,99273.35
2024-05-09T05:51:41.185Z,99272.89
2024-05-09T05:52:43.248Z,99274.67
2024-05-09T05:53:45.360Z,99275.84
2024-05-09T05:54:47.553Z,99273.17
2024-05-09T05:55:49.681Z,99270.16
2024-05-09T05:56:51.735Z,99270.53
2024-05-09T05:57:54.514Z,99268.95
2024-05-09T05:58:56.573Z,99273.91
2024-05-09T05:59:58.623Z,99274.97
2024-05-09T06:01:00.744Z,99271.94
2024-05-09T06:02:03.097Z,99275.88
2024-05-09T06:03:05.706Z,99275.85
2024-05-09T06:04:08.066Z,99275.86
2024-05-09T06:05:10.240Z,99271.98
2024-05-09T06:06:12.526Z,99273.33
2024-05-09T06:07:14.629Z,99270.69
2024-05-09T06:08:16.795Z,99273.03
2024-05-09T06:09:18.874Z,99274.59
2024-05-09T06:10:25.799Z,99273.62
2024-05-09T06:11:32.396Z,99274.48
2024-05-09T06:12:34.558Z,99276.41
2024-05-09T06:13:41.715Z,99277.79
2024-05-09T06:14:43.793Z,99279.34
2024-05-09T06:15:45.846Z,99281.45
2024-05-09T06:16:47.975Z,99283.80
2024-05-09T06:17:50.155Z,99283.30
2024-05-09T06:18:52.471Z,99281.95
2024-05-09T06:19:54.737Z,99283.98
2024-05-09T06:20:56.890Z,99286.58
2024-05-09T06:21:58.946Z,99287.96
2024-05-09T06:23:01.900Z,99287.88
2024-05-09T06:24:06.670Z,99286.45
2024-05-09T06:25:08.847Z,99286.31
2024-05-09T06:26:10.982Z,99285.95
2024-05-09T06:27:13.077Z,99287.22
2024-05-09T06:28:15.134Z,99288.88
2024-05-09T06:29:17.226Z,99291.25
2024-05-09T06:30:25.602Z,99293.38
2024-05-09T06:31:38.834Z,99292.34
2024-05-09T06:32:43.732Z,99292.58
2024-05-09T06:33:45.976Z,99292.16
2024-05-09T06:34:48.403Z,99289.84
2024-05-09T06:35:53.190Z,99289.66
2024-05-09T06:36:55.252Z,99289.67
2024-05-09T06:37:57.323Z,99291.51
2024-05-09T06:38:59.408Z,99292.50
2024-05-09T06:40:01.588Z,99291.12
2024-05-09T06:41:04.883Z,99289.95
2024-05-09T06:42:07.389Z,99289.63
2024-05-09T06:43:13.669Z,99290.51
2024-05-09T06:44:15.837Z,99290.83
2024-05-09T06:45:17.961Z,99291.52
2024-05-09T06:46:20.048Z,99290.00
2024-05-09T06:47:22.305Z,99290.00
2024-05-09T06:48:24.547Z,99292.78
2024-05-09T06:49:28.995Z,99296.50
2024-05-09T06:50:35.863Z,99294.38
2024-05-09T06:51:40.345Z,99294.67
2024-05-09T06:52:46.089Z,99296.14
2024-05-09T06:53:48.216Z,99298.19
2024-05-09T06:54:50.259Z,99296.63
2024-05-09T06:55:52.519Z,99299.05
2024-05-09T06:56:54.670Z,99299.87
2024-05-09T06:57:56.752Z,99301.13
2024-05-09T06:58:58.846Z,99303.38
2024-05-09T07:00:01.125Z,99304.43
2024-05-09T07:01:03.524Z,99302.08
2024-05-09T07:02:05.806Z,99300.77
2024-05-09T07:03:13.414Z,99300.69
2024-05-09T07:04:17.862Z,99301.11
2024-05-09T07:05:20.454Z,99304.63
2024-05-09T07:06:22.770Z,99305.03
2024-05-09T07:07:25.119Z,99304.06
2024-05-09T07:08:27.270Z,99305.60
2024-05-09T07:09:29.381Z,99308.28
2024-05-09T07:10:35.218Z,99305.94
2024-05-09T07:11:38.407Z,99308.05
2024-05-09T07:12:40.540Z,99308.61
2024-05-09T07:13:44.207Z,99307.49
2024-05-09T07:14:46.348Z,99307.72
2024-05-09T07:15:48.456Z,99306.77
2024-05-09T07:16:50.714Z,99304.98
2024-05-09T07:17:53.018Z,99304.16
2024-05-09T07:18:55.492Z,99303.13
2024-05-09T07:19:58.955Z,99303.07
2024-05-09T07:21:01.129Z,99308.16
2024-05-09T07:22:03.370Z,99305.61
2024-05-09T07:23:08.230Z,99305.69
2024-05-09T07:24:10.362Z,99305.61
2024-05-09T07:25:12.501Z,99306.34
2024-05-09T07:26:16.002Z,99306.01
2024-05-09T07:27:18.421Z,99305.23
2024-05-09T07:28:21.608Z,99305.91
2024-05-09T07:29:23.765Z,99300.00
2024-05-09T07:30:30.908Z,99300.81
2024-05-09T07:31:36.124Z,99300.33
2024-05-09T07:32:38.478Z,99300.21
2024-05-09T07:33:41.252Z,99300.95
2024-05-09T07:34:43.484Z,99302.48
2024-05-09T07:35:45.673Z,99302.11
2024-05-09T07:36:49.526Z,99299.32
2024-05-09T07:37:51.734Z,99302.65
2024-05-09T07:38:55.295Z,99301.91
2024-05-09T07:39:57.439Z,99299.59
2024-05-09T07:40:59.641Z,99301.13
2024-05-09T07:42:03.627Z,99299.91
2024-05-09T07:43:07.041Z,99302.37
2024-05-09T07:44:09.185Z,99301.05
2024-05-09T07:45:29.631Z,99299.44
2024-05-09T07:48:58.127Z,99301.27
2024-05-09T07:50:35.975Z,99299.81
2024-05-09T07:53:33.125Z,99296.41
2024-05-09T07:53:58.437Z,99294.47
2024-05-09T07:55:03.014Z,99298.67
2024-05-09T07:56:05.585Z,99300.93
2024-05-09T07:57:07.797Z,99302.88
2024-05-09T07:58:09.968Z,99299.96
2024-05-09T07:59:12.111Z,99300.71
2024-05-09T08:00:17.519Z,99301.37
2024-05-09T08:01:24.864Z,99303.26
2024-05-09T08:02:27.555Z,99301.92
2024-05-09T08:03:30.261Z,99303.32
2024-05-09T08:04:32.575Z,99300.05
2024-05-09T08:05:34.933Z,99298.35
2024-05-09T08:06:37.206Z,99295.96
2024-05-09T08:07:39.350Z,99295.30
2024-05-09T08:08:41.493Z,99301.06
2024-05-09T08:09:44.941Z,99302.88
2024-05-09T08:10:47.160Z,99303.26
2024-05-09T08:11:51.547Z,99300.93
2024-05-09T08:12:53.708Z,99304.59
2024-05-09T08:13:55.839Z,99303.34
2024-05-09T08:14:57.957Z,99305.38
2024-05-09T08:16:00.439Z,99299.60
2024-05-09T08:17:03.531Z,99301.15
2024-05-09T08:18:08.976Z,99298.68
2024-05-09T08:19:11.250Z,99296.08
2024-05-09T08:20:22.546Z,99296.96
2024-05-09T08:21:29.070Z,99299.79
2024-05-09T08:22:31.571Z,99297.57
2024-05-09T08:23:33.742Z,99297.75
2024-05-09T08:24:36.934Z,99300.57
2024-05-09T08:25:39.069Z,99302.85
2024-05-09T08:26:41.206Z,99297.32
2024-05-09T08:27:43.410Z,99298.05
2024-05-09T08:28:45.522Z,99297.33
2024-05-09T08:29:47.772Z,99296.80
2024-05-09T08:30:50.090Z,99297.55
2024-05-09T08:31:57.689Z,99297.09
2024-05-09T08:32:59.990Z,99297.38
2024-05-09T08:34:02.329Z,99298.23
2024-05-09T08:35:04.977Z,99299.49
2024-05-09T08:36:07.141Z,99294.32
2024-05-09T08:37:15.495Z,99296.45
2024-05-09T08:38:22.335Z,99302.06
2024-05-09T08:39:24.463Z,99300.98
2024-05-09T08:40:33.881Z,99295.84
2024-05-09T08:41:41.068Z,99297.80
2024-05-09T08:42:51.202Z,99299.16
2024-05-09T08:43:53.461Z,99301.34
2024-05-09T08:44:55.597Z,99295.52
2024-05-09T08:45:58.548Z,99297.70
2024-05-09T08:47:02.204Z,99297.72
2024-05-09T08:48:07.252Z,99304.82
2024-05-09T08:49:10.229Z,99304.65
2024-05-09T08:50:24.342Z,99299.41
2024-05-09T08:51:34.481Z,99299.66
2024-05-09T08:52:36.663Z,99302.41
2024-05-09T08:53:39.062Z,99302.44
2024-05-09T08:54:41.276Z,99300.34
2024-05-09T08:55:45.298Z,99300.41
2024-05-09T08:56:48.576Z,99301.63
2024-05-09T08:57:51.502Z,99301.50
2024-05-09T08:58:56.607Z,99308.13
2024-05-09T09:00:03.445Z,99307.41
2024-05-09T09:01:07.118Z,99304.95
2024-05-09T09:02:12.657Z,99306.70
2024-05-09T09:03:17.079Z,99307.59
2024-05-09T09:04:20.290Z,99306.11
2024-05-09T09:05:26.086Z,99304.87
2024-05-09T09:06:29.040Z,99306.13
2024-05-09T09:07:32.680Z,99303.53
2024-05-09T09:08:37.971Z,99300.94
2024-05-09T09:09:42.398Z,99305.34
2024-05-09T09:10:46.570Z,99310.06
2024-05-09T09:11:48.721Z,99306.91
2024-05-09T09:12:57.480Z,99308.34
2024-05-09T09:13:59.600Z,99308.52
2024-05-09T09:15:01.789Z,99304.55
2024-05-09T09:16:04.363Z,99305.77
2024-05-09T09:17:16.367Z,99300.24
2024-05-09T09:18:19.301Z,99298.42
2024-05-09T09:19:22.381Z,99295.87
2024-05-09T09:20:33.265Z,99292.39
2024-05-09T09:21:38.301Z,99295.30
2024-05-09T09:22:40.430Z,99292.76
2024-05-09T09:23:42.624Z,99296.51
2024-05-09T09:24:44.786Z,99296.52
2024-05-09T09:25:47.023Z,99294.53
2024-05-09T09:26:49.756Z,99293.64
2024-05-09T09:27:51.897Z,99294.35
2024-05-09T09:28:58.898Z,99294.57
2024-05-09T09:30:01.117Z,99292.70
2024-05-09T09:31:03.573Z,99293.63
2024-05-09T09:32:07.448Z,99290.82
2024-05-09T09:33:10.568Z,99291.41
2024-05-09T09:34:13.076Z,99294.05
2024-05-09T09:35:16.292Z,99289.38
2024-05-09T09:36:18.575Z,99291.79
2024-05-09T09:37:22.499Z,99289.88
2024-05-09T09:38:29.051Z,99287.16
2024-05-09T09:39:32.914Z,99285.82
2024-05-09T09:40:40.466Z,99289.05
2024-05-09T09:41:46.938Z,99285.71
2024-05-09T09:42:49.312Z,99287.52
2024-05-09T09:43:52.646Z,99291.27
2024-05-09T09:45:04.218Z,99287.53
2024-05-09T09:46:10.810Z,99291.25
2024-05-09T09:47:15.763Z,99289.62
2024-05-09T09:48:19.305Z,99288.56
2024-05-09T09:49:29.493Z,99285.75
2024-05-09T09:50:35.097Z,99285.61
2024-05-09T09:51:42.423Z,99286.45
2024-05-09T09:52:44.996Z,99286.05
2024-05-09T09:53:48.312Z,99279.54
2024-05-09T09:54:53.081Z,99284.91
2024-05-09T09:55:55.669Z,99285.15
2024-05-09T09:56:58.727Z,99286.49
2024-05-09T09:58:03.083Z,99285.73
2024-05-09T09:59:05.969Z,99287.40
2024-05-09T10:00:12.038Z,99284.54
2024-05-09T10:01:19.433Z,99283.78
2024-05-09T10:02:21.958Z,99291.57
2024-05-09T10:03:24.416Z,99292.98
2024-05-09T10:04:28.161Z,99287.84
2024-05-09T10:05:32.213Z,99291.19
2024-05-09T10:06:40.061Z,99291.25
2024-05-09T10:07:42.834Z,99288.22
2024-05-09T10:08:46.743Z,99287.67
2024-05-09T10:09:48.988Z,99288.25
2024-05-09T10:10:51.252Z,99284.23
2024-05-09T10:11:59.755Z,99283.77
2024-05-09T10:13:06.711Z,99284.98
2024-05-09T10:14:09.085Z,99280.02
2024-05-09T10:15:11.198Z,99283.37
2024-05-09T10:16:20.320Z,99280.95
2024-05-09T10:17:22.524Z,99275.05
2024-05-09T10:18:35.751Z,99273.63
2024-05-09T10:19:37.979Z,99271.02
2024-05-09T10:20:43.481Z,99268.32
2024-05-09T10:21:46.063Z,99275.08
2024-05-09T10:22:49.351Z,99277.84
2024-05-09T10:24:07.599Z,99270.77
2024-05-09T10:25:11.481Z,99269.49
2024-05-09T10:26:13.607Z,99270.01
2024-05-09T10:27:24.221Z,99270.15
2024-05-09T10:28:30.760Z,99267.83
2024-05-09T10:29:32.945Z,99265.42
2024-05-09T10:30:36.410Z,99264.75
2024-05-09T10:31:46.249Z,99263.04
2024-05-09T10:32:52.470Z,99263.13
2024-05-09T10:33:55.187Z,99263.25
2024-05-09T10:35:05.877Z,99261.20
2024-05-09T10:36:18.294Z,99260.06
2024-05-09T10:37:21.156Z,99257.95
2024-05-09T10:38:23.805Z,99257.30
2024-05-09T10:39:26.328Z,99257.54
2024-05-09T10:40:31.601Z,99257.02
2024-05-09T10:41:36.884Z,99255.67
2024-05-09T10:42:40.549Z,99256.13
2024-05-09T10:43:42.925Z,99253.76
2024-05-09T10:44:46.215Z,99251.98
2024-05-09T10:45:48.627Z,99252.31
2024-05-09T10:46:53.385Z,99249.85
2024-05-09T10:47:55.808Z,99250.71
2024-05-09T10:48:58.031Z,99252.29
2024-05-09T10:50:00.595Z,99253.22
2024-05-09T10:51:03.388Z,99247.53
2024-05-09T10:52:07.367Z,99247.95
2024-05-09T10:53:09.471Z,99247.82
2024-05-09T10:54:11.688Z,99250.26
2024-05-09T10:55:14.080Z,99249.18
2024-05-09T10:56:17.334Z,99247.41
2024-05-09T10:57:20.799Z,99245.02
2024-05-09T10:58:23.261Z,99247.47
2024-05-09T10:59:34.436Z,99246.19
2024-05-09T11:00:37.687Z,99247.84
2024-05-09T11:01:40.423Z,99249.26
2024-05-09T11:02:43.235Z,99251.29
2024-05-09T11:03:49.030Z,99249.28
2024-05-09T11:04:51.866Z,99245.57
2024-05-09T11:05:54.507Z,99248.07
2024-05-09T11:06:57.144Z,99246.77
2024-05-09T11:07:59.252Z,99245.43
2024-05-09T11:09:01.410Z,99243.20
2024-05-09T11:10:04.938Z,99244.95
2024-05-09T11:11:09.390Z,99242.00
2024-05-09T11:12:11.849Z,99240.66
2024-05-09T11:13:14.103Z,99240.80
2024-05-09T11:14:16.307Z,99238.83
2024-05-09T11:15:18.598Z,99239.77
2024-05-09T11:16:21.450Z,99242.09
2024-05-09T11:17:23.860Z,99242.01
2024-05-09T11:18:30.792Z,99241.72
2024-05-09T11:19:38.692Z,99243.86
2024-05-09T11:20:40.965Z,99243.23
2024-05-09T11:21:50.406Z,99243.95
2024-05-09T11:22:52.545Z,99240.25
2024-05-09T11:23:55.998Z,99237.28
2024-05-09T11:24:58.474Z,99242.20
2024-05-09T11:26:00.714Z,99237.80
2024-05-09T11:27:04.150Z,99239.23
2024-05-09T11:28:06.437Z,99240.96
2024-05-09T11:29:08.539Z,99233.04
2024-05-09T11:30:24.247Z,99236.86
2024-05-09T11:31:46.754Z,99231.02
2024-05-09T11:32:49.053Z,99234.20
2024-05-09T11:33:53.899Z,99235.27
2024-05-09T11:34:56.094Z,99233.76
2024-05-09T11:35:58.254Z,99231.72
2024-05-09T11:37:00.505Z,99232.86
2024-05-09T11:38:03.355Z,99229.47
2024-05-09T11:39:06.010Z,99228.63
2024-05-09T11:40:13.915Z,99229.24
2024-05-09T11:41:23.343Z,99229.51
2024-05-09T11:42:25.445Z,99230.23
2024-05-09T11:43:27.731Z,99236.36
2024-05-09T11:44:29.827Z,99230.91
2024-05-09T11:45:32.414Z,99225.44
2024-05-09T11:46:34.542Z,99221.20
2024-05-09T11:47:38.599Z,99223.95
2024-05-09T11:48:40.973Z,99221.64
2024-05-09T11:49:43.180Z,99223.52
2024-05-09T11:50:45.343Z,99220.63
2024-05-09T11:51:47.486Z,99220.68
2024-05-09T11:52:49.632Z,99220.49
2024-05-09T11:53:51.746Z,99220.30
2024-05-09T11:54:53.925Z,99219.55
2024-05-09T11:55:57.452Z,99219.03
2024-05-09T11:56:59.838Z,99224.61
2024-05-09T11:58:02.537Z,99222.69
2024-05-09T11:59:04.675Z,99219.46
2024-05-09T12:00:11.880Z,99216.08
2024-05-09T12:01:18.731Z,99217.14
2024-05-09T12:02:20.933Z,99210.84
2024-05-09T12:03:23.218Z,99210.50
2024-05-09T12:04:25.498Z,99210.43
2024-05-09T12:05:29.100Z,99208.54
2024-05-09T12:06:31.353Z,99209.11
2024-05-09T12:07:33.473Z,99210.93
2024-05-09T12:08:35.628Z,99208.17
2024-05-09T12:09:37.772Z,99204.30
2024-05-09T12:10:40.103Z,99201.98
2024-05-09T12:11:42.666Z,99207.59
2024-05-09T12:12:44.936Z,99200.37
2024-05-09T12:13:47.129Z,99202.84
2024-05-09T12:14:49.256Z,99201.80
2024-05-09T12:15:51.443Z,99201.96
2024-05-09T12:16:53.619Z,99200.68
2024-05-09T12:17:58.160Z,99201.84
2024-05-09T12:19:02.142Z,99202.33
2024-05-09T12:21:07.739Z,99197.63
2024-05-09T12:22:10.155Z,99200.13
2024-05-09T12:23:12.370Z,99202.92
2024-05-09T12:24:17.709Z,99202.80
2024-05-09T12:25:20.541Z,99202.94
2024-05-09T12:26:22.751Z,99203.20
2024-05-09T12:27:24.882Z,99204.95
2024-05-09T12:28:27.029Z,99199.03
2024-05-09T12:29:29.139Z,99196.13
2024-05-09T12:30:36.994Z,99193.98
2024-05-09T12:31:41.824Z,99195.30